Time;durP1;ratioP1;P1;durP2;ratioP2;P2;SDS_P1;SDS_P2;PMS_P1;PMS_P2;Temp;Humidity;BMP_temperature;BMP_pressure;BME280_temperature;BME280_humidity;BME280_pressure;Samples;Min_cycle;Max_cycle;Signal;HPM_P1;HPM_P2
2023/12/11 00:01:20;;;;;;;4.90;1.75;;;3.80;99.90;;;;;;4912906;29;20044;-73
2023/12/11 00:03:46;;;;;;;5.07;1.90;;;3.90;99.90;;;;;;4915854;29;20488;-72
2023/12/11 00:06:12;;;;;;;4.35;2.13;;;3.90;99.90;;;;;;4915640;29;20043;-72
2023/12/11 00:08:38;;;;;;;4.05;2.30;;;4.00;99.90;;;;;;4914385;29;20492;-73
2023/12/11 00:11:03;;;;;;;7.15;2.45;;;4.10;99.90;;;;;;4916002;29;20047;-73
2023/12/11 00:13:29;;;;;;;5.15;2.47;;;4.20;99.90;;;;;;4913703;29;20479;-73
2023/12/11 00:15:55;;;;;;;5.32;2.58;;;3.90;99.90;;;;;;4915115;29;20090;-73
2023/12/11 00:18:20;;;;;;;4.63;2.00;;;3.60;99.90;;;;;;4917943;29;20058;-72
2023/12/11 00:20:46;;;;;;;4.97;2.38;;;3.50;99.90;;;;;;4919397;29;20454;-73
2023/12/11 00:23:12;;;;;;;5.60;2.80;;;3.60;99.90;;;;;;4920238;29;20480;-72
2023/12/11 00:25:45;;;;;;;4.55;1.70;;;3.80;99.90;;;;;;4918778;29;21318;-72
2023/12/11 00:28:11;;;;;;;3.60;1.92;;;3.70;99.90;;;;;;4917529;29;20033;-72
2023/12/11 00:30:37;;;;;;;5.28;2.38;;;3.70;99.90;;;;;;4919845;29;20055;-72
2023/12/11 00:33:02;;;;;;;5.35;2.65;;;3.90;99.90;;;;;;4919061;29;20158;-73
2023/12/11 00:35:28;;;;;;;4.47;2.33;;;3.80;99.90;;;;;;4918150;29;20431;-73
2023/12/11 00:37:54;;;;;;;3.47;1.95;;;3.80;99.90;;;;;;4919872;29;20062;-73
2023/12/11 00:40:19;;;;;;;4.22;2.53;;;3.90;99.90;;;;;;4918006;29;20143;-73
2023/12/11 00:42:45;;;;;;;4.30;2.20;;;3.70;99.90;;;;;;4918134;29;20075;-73
2023/12/11 00:45:13;;;;;;;3.75;1.92;;;3.70;99.90;;;;;;4919610;29;20042;-71
2023/12/11 00:47:39;;;;;;;4.47;1.95;;;3.70;99.90;;;;;;4916739;29;20027;-73
2023/12/11 00:50:04;;;;;;;5.25;2.10;;;3.80;99.90;;;;;;4918330;29;20410;-73
2023/12/11 00:52:30;;;;;;;3.88;2.00;;;3.70;99.90;;;;;;4899769;29;20087;-72
2023/12/11 00:54:56;;;;;;;4.60;2.03;;;3.40;99.90;;;;;;4918817;29;20040;-72
2023/12/11 00:57:22;;;;;;;4.47;2.03;;;3.40;99.90;;;;;;4917760;29;20036;-73
2023/12/11 00:59:48;;;;;;;5.05;2.80;;;3.60;99.90;;;;;;4917475;29;20047;-73
2023/12/11 01:02:13;;;;;;;6.65;3.50;;;3.70;99.90;;;;;;4919646;29;20122;-72
2023/12/11 01:04:39;;;;;;;5.20;2.80;;;3.20;99.90;;;;;;4918214;29;20526;-73
2023/12/11 01:07:05;;;;;;;6.05;2.53;;;3.10;99.90;;;;;;4917133;29;20039;-73
2023/12/11 01:09:30;;;;;;;8.13;2.72;;;3.10;99.90;;;;;;4918936;29;20042;-73
2023/12/11 01:11:56;;;;;;;7.63;3.35;;;3.10;99.90;;;;;;4916619;29;20063;-73
2023/12/11 01:14:22;;;;;;;5.57;3.15;;;2.90;99.90;;;;;;4918412;29;20043;-73
2023/12/11 01:16:47;;;;;;;7.05;3.55;;;2.80;99.90;;;;;;4917308;29;20039;-73
2023/12/11 01:19:13;;;;;;;6.55;2.70;;;2.90;99.90;;;;;;4917153;29;20059;-73
2023/12/11 01:21:39;;;;;;;5.03;2.25;;;2.90;99.90;;;;;;4918939;29;20063;-73
2023/12/11 01:24:05;;;;;;;2.80;1.65;;;2.90;99.90;;;;;;4917681;29;20028;-72
2023/12/11 01:26:30;;;;;;;4.82;1.90;;;3.10;99.90;;;;;;4917356;29;20086;-73
2023/12/11 01:28:56;;;;;;;3.67;1.70;;;3.20;99.90;;;;;;4916119;29;20028;-73
2023/12/11 01:31:21;;;;;;;3.60;1.80;;;3.20;99.90;;;;;;4916798;29;20055;-73
2023/12/11 01:33:47;;;;;;;5.43;2.10;;;3.40;99.90;;;;;;4916257;29;20043;-73
2023/12/11 01:36:13;;;;;;;4.18;1.95;;;3.60;99.90;;;;;;4917802;29;20046;-73
2023/12/11 01:38:38;;;;;;;5.43;2.13;;;3.70;99.90;;;;;;4918994;29;20478;-73
2023/12/11 01:41:04;;;;;;;3.35;1.83;;;3.80;99.90;;;;;;4914493;29;20501;-73
2023/12/11 01:43:30;;;;;;;4.90;2.05;;;3.70;99.90;;;;;;4915800;29;20098;-73
2023/12/11 01:46:03;;;;;;;5.55;3.50;;;3.70;99.90;;;;;;4919675;29;20473;-73
2023/12/11 01:48:30;;;;;;;5.03;2.55;;;3.70;99.90;;;;;;4918281;29;20538;-72
2023/12/11 01:50:56;;;;;;;4.65;2.67;;;3.60;99.90;;;;;;4916312;29;20079;-73
2023/12/11 01:53:22;;;;;;;6.57;2.75;;;3.50;99.90;;;;;;4916532;29;20110;-73
2023/12/11 01:55:49;;;;;;;3.78;2.25;;;3.60;99.90;;;;;;4916023;29;20102;-73
2023/12/11 01:58:16;;;;;;;6.63;2.22;;;3.50;99.90;;;;;;4918262;29;20039;-73
2023/12/11 02:00:42;;;;;;;5.60;2.00;;;3.30;99.90;;;;;;4917445;29;20040;-73
2023/12/11 02:03:09;;;;;;;3.58;1.83;;;3.30;99.90;;;;;;4916749;29;20450;-72
2023/12/11 02:05:36;;;;;;;5.18;2.40;;;3.30;99.90;;;;;;4917456;29;20187;-73
2023/12/11 02:08:01;;;;;;;6.40;2.70;;;3.50;99.90;;;;;;4916742;29;20059;-72
2023/12/11 02:10:27;;;;;;;5.55;2.22;;;3.50;99.90;;;;;;4915649;29;20130;-72
2023/12/11 02:12:53;;;;;;;5.50;2.60;;;3.50;99.90;;;;;;4918201;29;20390;-74
2023/12/11 02:15:37;;;;;;;5.88;2.38;;;3.70;99.90;;;;;;4917034;29;20172;-73
2023/12/11 02:18:03;;;;;;;4.97;2.35;;;3.60;99.90;;;;;;4915600;29;20496;-73
2023/12/11 02:20:29;;;;;;;5.82;2.70;;;3.50;99.90;;;;;;4916052;29;20040;-73
2023/12/11 02:22:59;;;;;;;5.75;2.67;;;3.40;99.90;;;;;;4916078;29;20046;-73
2023/12/11 02:25:27;;;;;;;5.53;2.70;;;3.30;99.90;;;;;;4916893;29;20040;-73
2023/12/11 02:27:53;;;;;;;6.68;2.13;;;3.30;99.90;;;;;;4917167;29;20040;-73
2023/12/11 02:30:19;;;;;;;4.40;1.95;;;3.40;99.90;;;;;;4917684;29;20044;-73
2023/12/11 02:32:44;;;;;;;4.35;1.95;;;3.20;99.90;;;;;;4915808;29;20034;-73
2023/12/11 02:35:10;;;;;;;4.63;2.20;;;3.40;99.90;;;;;;4916402;29;20042;-73
2023/12/11 02:37:35;;;;;;;5.20;2.55;;;3.40;99.90;;;;;;4917669;29;20040;-73
2023/12/11 02:40:01;;;;;;;3.88;2.08;;;3.40;99.90;;;;;;4916128;29;20486;-73
2023/12/11 02:42:27;;;;;;;4.63;2.40;;;3.30;99.90;;;;;;4920611;29;20540;-73
2023/12/11 02:44:52;;;;;;;5.03;2.63;;;3.20;99.90;;;;;;4924728;29;21416;-73
2023/12/11 02:47:18;;;;;;;4.40;2.20;;;3.10;99.90;;;;;;4920417;29;20035;-73
2023/12/11 02:49:44;;;;;;;5.15;2.10;;;2.90;99.90;;;;;;4923528;29;20098;-73
2023/12/11 02:52:09;;;;;;;4.88;2.00;;;2.90;99.90;;;;;;4921632;29;20405;-73
2023/12/11 02:54:35;;;;;;;4.55;2.08;;;2.90;99.90;;;;;;4922872;29;20070;-73
2023/12/11 02:57:01;;;;;;;4.95;2.00;;;3.00;99.90;;;;;;4922949;29;20493;-73
2023/12/11 02:59:26;;;;;;;3.88;1.80;;;3.00;99.90;;;;;;4923813;29;20067;-72
2023/12/11 03:01:52;;;;;;;4.80;2.08;;;3.10;99.90;;;;;;4922093;29;20119;-74
2023/12/11 03:04:18;;;;;;;5.30;2.40;;;3.00;99.90;;;;;;4922011;29;20039;-74
2023/12/11 03:06:43;;;;;;;6.97;3.65;;;2.90;99.90;;;;;;4922458;29;20050;-73
2023/12/11 03:09:09;;;;;;;5.85;3.53;;;2.90;99.90;;;;;;4922103;29;20167;-74
2023/12/11 03:11:34;;;;;;;6.15;2.63;;;3.00;99.90;;;;;;4922845;29;20054;-73
2023/12/11 03:14:00;;;;;;;4.60;2.10;;;3.10;99.90;;;;;;4924160;29;20032;-73
2023/12/11 03:16:26;;;;;;;4.13;2.05;;;3.00;99.90;;;;;;4921528;29;20482;-74
2023/12/11 03:18:51;;;;;;;4.72;2.20;;;3.10;99.90;;;;;;4923811;29;20413;-73
2023/12/11 03:21:17;;;;;;;4.32;2.47;;;3.10;99.90;;;;;;4920825;29;20035;-73
2023/12/11 03:23:43;;;;;;;3.88;1.70;;;3.10;99.90;;;;;;4905330;29;20047;-74
2023/12/11 03:26:09;;;;;;;6.28;2.10;;;3.10;99.90;;;;;;4923750;29;20385;-73
2023/12/11 03:28:34;;;;;;;5.13;2.03;;;3.10;99.90;;;;;;4922506;29;20042;-73
2023/12/11 03:31:00;;;;;;;4.93;2.30;;;3.10;99.90;;;;;;4921927;29;20043;-73
2023/12/11 03:33:26;;;;;;;5.10;2.65;;;2.80;99.90;;;;;;4924266;29;20070;-73
2023/12/11 03:35:51;;;;;;;4.03;2.20;;;2.90;99.90;;;;;;4922430;29;20394;-74
2023/12/11 03:38:17;;;;;;;5.13;2.25;;;2.90;99.90;;;;;;4921723;29;20119;-74
2023/12/11 03:40:43;;;;;;;4.13;1.90;;;2.90;99.90;;;;;;4923488;29;20042;-73
2023/12/11 03:43:10;;;;;;;4.75;2.42;;;3.00;99.90;;;;;;4922503;29;20485;-73
2023/12/11 03:45:35;;;;;;;4.10;2.40;;;3.10;99.90;;;;;;4921419;29;20046;-73
2023/12/11 03:48:01;;;;;;;4.78;2.63;;;3.10;99.90;;;;;;4923644;29;20410;-73
2023/12/11 03:50:27;;;;;;;5.85;2.95;;;3.10;99.90;;;;;;4922284;29;20036;-74
2023/12/11 03:52:52;;;;;;;5.72;2.58;;;3.00;99.90;;;;;;4921299;29;20043;-73
2023/12/11 03:55:18;;;;;;;4.97;2.60;;;2.90;99.90;;;;;;4920079;29;20046;-73
2023/12/11 03:57:44;;;;;;;5.38;2.75;;;3.00;99.90;;;;;;4918573;29;20027;-74
2023/12/11 04:00:10;;;;;;;6.43;2.40;;;2.90;99.90;;;;;;4918693;29;20038;-73
2023/12/11 04:02:35;;;;;;;6.20;2.45;;;3.10;99.90;;;;;;4918403;29;20525;-73
2023/12/11 04:05:01;;;;;;;5.45;2.33;;;3.20;99.90;;;;;;4894994;29;20071;-73
2023/12/11 04:07:28;;;;;;;4.78;2.28;;;3.10;99.90;;;;;;4914387;29;20023;-74
2023/12/11 04:09:53;;;;;;;4.30;2.28;;;3.10;99.90;;;;;;4915873;29;20054;-73
2023/12/11 04:12:19;;;;;;;5.18;2.85;;;3.50;99.90;;;;;;4915266;29;20031;-73
2023/12/11 04:14:45;;;;;;;4.10;2.35;;;3.70;99.90;;;;;;4914434;29;20041;-74
2023/12/11 04:17:10;;;;;;;4.50;2.22;;;3.60;99.90;;;;;;4913546;29;20035;-73
2023/12/11 04:19:36;;;;;;;4.72;2.50;;;3.60;99.90;;;;;;4912356;29;20554;-73
2023/12/11 04:22:02;;;;;;;4.78;2.97;;;3.60;99.90;;;;;;4912968;29;20114;-73
2023/12/11 04:24:27;;;;;;;5.93;2.97;;;3.50;99.90;;;;;;4915565;29;20047;-73
2023/12/11 04:26:53;;;;;;;5.00;2.83;;;3.40;99.90;;;;;;4916044;29;20042;-73
2023/12/11 04:29:18;;;;;;;4.80;2.35;;;3.40;99.90;;;;;;4916166;29;20126;-73
2023/12/11 04:31:44;;;;;;;6.13;2.33;;;3.30;99.90;;;;;;4882434;29;20075;-73
2023/12/11 04:34:10;;;;;;;6.35;2.22;;;3.40;99.90;;;;;;4914844;29;20047;-73
2023/12/11 04:36:35;;;;;;;4.93;2.33;;;3.30;99.90;;;;;;4912281;29;20612;-73
2023/12/11 04:39:02;;;;;;;3.92;2.33;;;3.20;99.90;;;;;;4912211;29;20039;-73
2023/12/11 04:41:28;;;;;;;6.22;3.10;;;3.30;99.90;;;;;;4916487;29;20047;-74
2023/12/11 04:43:53;;;;;;;7.07;3.40;;;3.10;99.90;;;;;;4913010;29;20098;-74
2023/12/11 04:46:19;;;;;;;5.13;2.30;;;3.00;99.90;;;;;;4911537;29;20039;-74
2023/12/11 04:48:44;;;;;;;6.57;2.05;;;3.30;99.90;;;;;;4912719;29;20059;-73
2023/12/11 04:51:10;;;;;;;5.00;2.33;;;3.40;99.90;;;;;;4911948;29;20043;-74
2023/12/11 04:53:36;;;;;;;8.38;3.03;;;3.40;99.90;;;;;;4913133;29;20036;-73
2023/12/11 04:56:06;;;;;;;8.27;3.55;;;3.20;99.90;;;;;;4911611;29;20039;-74
2023/12/11 04:58:32;;;;;;;6.45;3.25;;;3.00;99.90;;;;;;4911310;29;20118;-74
2023/12/11 05:00:57;;;;;;;5.57;2.65;;;3.00;99.90;;;;;;4912435;29;20042;-74
2023/12/11 05:03:23;;;;;;;7.53;3.45;;;2.90;99.90;;;;;;4911331;29;20699;-74
2023/12/11 05:05:49;;;;;;;7.68;3.88;;;2.80;99.90;;;;;;4910304;29;20035;-74
2023/12/11 05:08:14;;;;;;;6.75;3.25;;;2.80;99.90;;;;;;4912440;29;20050;-74
2023/12/11 05:10:40;;;;;;;5.43;3.13;;;2.80;99.90;;;;;;4912387;29;20063;-73
2023/12/11 05:13:06;;;;;;;6.13;2.80;;;2.90;99.90;;;;;;4910488;29;20047;-74
2023/12/11 05:15:31;;;;;;;4.95;2.45;;;2.90;99.90;;;;;;4912027;29;20040;-74
2023/12/11 05:17:57;;;;;;;5.68;2.42;;;2.90;99.90;;;;;;4910467;29;20083;-73
2023/12/11 05:20:22;;;;;;;5.03;2.75;;;2.90;99.90;;;;;;4911116;29;20043;-74
2023/12/11 05:22:48;;;;;;;4.97;2.50;;;2.80;99.90;;;;;;4910600;29;20610;-74
2023/12/11 05:25:14;;;;;;;6.13;3.10;;;2.80;99.90;;;;;;4911772;29;20043;-73
2023/12/11 05:27:39;;;;;;;5.13;2.65;;;2.80;99.90;;;;;;4910745;29;20035;-73
2023/12/11 05:30:07;;;;;;;4.18;2.17;;;2.70;99.90;;;;;;4910791;29;20050;-73
2023/12/11 05:32:32;;;;;;;5.70;2.28;;;2.90;99.90;;;;;;4911936;29;20087;-74
2023/12/11 05:34:58;;;;;;;5.20;2.15;;;2.80;99.90;;;;;;4911037;29;20561;-74
2023/12/11 05:37:24;;;;;;;4.57;2.28;;;2.70;99.90;;;;;;4911007;29;20020;-73
2023/12/11 05:39:49;;;;;;;3.65;2.00;;;2.70;99.90;;;;;;4912134;29;20496;-74
2023/12/11 05:42:15;;;;;;;5.28;2.10;;;2.90;99.90;;;;;;4909566;29;20051;-73
2023/12/11 05:44:41;;;;;;;6.88;2.20;;;3.10;99.90;;;;;;4909842;29;20065;-73
2023/12/11 05:47:06;;;;;;;4.97;2.33;;;3.10;99.90;;;;;;4910938;29;20040;-73
2023/12/11 05:49:32;;;;;;;7.63;3.83;;;3.10;99.90;;;;;;4910145;29;20502;-73
2023/12/11 05:51:58;;;;;;;8.38;3.70;;;3.10;99.90;;;;;;4913018;29;20035;-74
2023/12/11 05:54:23;;;;;;;5.15;2.35;;;3.10;99.90;;;;;;4908432;29;20032;-74
2023/12/11 05:56:49;;;;;;;4.55;2.50;;;3.00;99.90;;;;;;4910385;29;21178;-73
2023/12/11 05:59:15;;;;;;;4.97;2.25;;;2.90;99.90;;;;;;4910510;29;20031;-73
2023/12/11 06:01:40;;;;;;;6.18;2.30;;;2.90;99.90;;;;;;4910260;29;20623;-73
2023/12/11 06:04:06;;;;;;;5.88;2.42;;;2.80;99.90;;;;;;4910865;29;20390;-73
2023/12/11 06:06:32;;;;;;;3.65;1.98;;;2.80;99.90;;;;;;4909907;29;20686;-73
2023/12/11 06:08:57;;;;;;;3.50;1.75;;;2.70;99.90;;;;;;4912294;29;20044;-74
2023/12/11 06:11:23;;;;;;;3.38;1.85;;;2.60;99.90;;;;;;4909551;29;20051;-73
2023/12/11 06:13:49;;;;;;;4.75;2.17;;;2.50;99.90;;;;;;4909006;29;20035;-73
2023/12/11 06:16:16;;;;;;;4.15;2.20;;;2.50;99.90;;;;;;4910794;29;20042;-74
2023/12/11 06:18:41;;;;;;;5.85;2.78;;;2.60;99.90;;;;;;4894997;29;20058;-73
2023/12/11 06:21:20;;;;;;;6.10;2.20;;;2.60;99.90;;;;;;4909935;29;20672;-74
2023/12/11 06:23:46;;;;;;;4.82;2.22;;;2.60;99.90;;;;;;4906513;29;20035;-74
2023/12/11 06:26:24;;;;;;;4.57;2.53;;;2.60;99.90;;;;;;4908725;29;20047;-74
2023/12/11 06:28:49;;;;;;;4.70;1.95;;;2.60;99.90;;;;;;4909344;29;21468;-74
2023/12/11 06:31:15;;;;;;;4.68;2.38;;;2.40;99.90;;;;;;4909306;29;20130;-73
2023/12/11 06:33:41;;;;;;;6.38;3.00;;;2.60;99.90;;;;;;4911519;29;20126;-73
2023/12/11 06:36:07;;;;;;;4.55;2.92;;;2.80;99.90;;;;;;4910050;29;20396;-73
2023/12/11 06:38:32;;;;;;;4.57;2.42;;;2.70;99.90;;;;;;4911064;29;20355;-73
2023/12/11 06:40:58;;;;;;;6.40;2.30;;;2.90;99.90;;;;;;4911211;29;20044;-73
2023/12/11 06:43:24;;;;;;;5.85;2.30;;;2.80;99.90;;;;;;4910475;29;20655;-73
2023/12/11 06:45:49;;;;;;;5.15;2.25;;;2.90;99.90;;;;;;4910231;29;20665;-73
2023/12/11 06:48:15;;;;;;;5.95;2.75;;;2.90;99.90;;;;;;4911735;29;20170;-73
2023/12/11 06:50:41;;;;;;;5.13;2.17;;;3.00;99.90;;;;;;4911725;29;20055;-73
2023/12/11 06:53:06;;;;;;;5.07;2.22;;;2.80;99.90;;;;;;4908773;29;20040;-74
2023/12/11 06:55:32;;;;;;;4.75;2.60;;;2.90;99.90;;;;;;4910177;29;20035;-74
2023/12/11 06:57:58;;;;;;;3.60;2.00;;;2.90;99.90;;;;;;4909345;29;20714;-73
2023/12/11 07:00:25;;;;;;;4.20;2.42;;;2.90;99.90;;;;;;4909186;29;20568;-73
2023/12/11 07:02:50;;;;;;;6.45;2.20;;;3.10;99.90;;;;;;4912182;29;20159;-73
2023/12/11 07:05:16;;;;;;;4.45;2.25;;;3.20;99.90;;;;;;4909947;29;20067;-74
2023/12/11 07:07:42;;;;;;;4.90;2.35;;;3.10;99.90;;;;;;4910090;29;20043;-74
2023/12/11 07:10:08;;;;;;;3.92;2.10;;;3.00;99.90;;;;;;4908938;29;20130;-74
2023/12/11 07:12:35;;;;;;;5.50;2.45;;;3.00;99.90;;;;;;4907307;29;20042;-74
2023/12/11 07:15:01;;;;;;;8.25;2.42;;;3.00;99.90;;;;;;4909371;29;20036;-73
2023/12/11 07:17:27;;;;;;;5.03;2.70;;;3.00;99.90;;;;;;4909435;29;20474;-73
2023/12/11 07:19:52;;;;;;;4.03;2.35;;;3.00;99.90;;;;;;4909401;29;20422;-73
2023/12/11 07:22:18;;;;;;;4.60;2.53;;;3.10;99.90;;;;;;4908184;29;20046;-73
2023/12/11 07:24:44;;;;;;;4.40;2.65;;;3.00;99.90;;;;;;4909780;29;20066;-74
2023/12/11 07:27:11;;;;;;;4.88;2.50;;;3.10;99.90;;;;;;4910097;29;20557;-73
2023/12/11 07:29:36;;;;;;;5.57;2.78;;;3.20;99.90;;;;;;4914952;29;20046;-73
2023/12/11 07:32:02;;;;;;;7.43;3.22;;;3.10;99.90;;;;;;4914759;29;20036;-76
2023/12/11 07:34:29;;;;;;;7.35;2.75;;;3.10;99.90;;;;;;4879092;29;20138;-74
2023/12/11 07:36:55;;;;;;;6.47;3.30;;;3.20;99.90;;;;;;4911256;29;20039;-74
2023/12/11 07:39:20;;;;;;;5.20;3.25;;;3.10;99.90;;;;;;4912724;29;20398;-74
2023/12/11 07:41:46;;;;;;;8.77;2.85;;;2.90;99.90;;;;;;4913739;29;20051;-74
2023/12/11 07:44:12;;;;;;;7.20;3.20;;;2.90;99.90;;;;;;4912680;29;20055;-76
2023/12/11 07:46:37;;;;;;;6.38;3.10;;;3.10;99.90;;;;;;4912886;29;20032;-75
2023/12/11 07:49:03;;;;;;;6.50;2.72;;;3.10;99.90;;;;;;4913574;29;20028;-74
2023/12/11 07:51:29;;;;;;;7.20;2.85;;;3.10;99.90;;;;;;4910793;29;21121;-74
2023/12/11 07:53:55;;;;;;;9.88;3.17;;;3.10;99.90;;;;;;4912608;29;20067;-74
2023/12/11 07:56:22;;;;;;;6.07;2.55;;;3.00;99.90;;;;;;4911970;29;20023;-74
2023/12/11 07:58:48;;;;;;;6.10;3.13;;;3.00;99.90;;;;;;4913114;29;20157;-73
2023/12/11 08:01:14;;;;;;;6.32;3.10;;;3.10;99.90;;;;;;4912943;29;20533;-74
2023/12/11 08:03:40;;;;;;;7.72;3.38;;;3.20;99.90;;;;;;4913271;29;20031;-74
2023/12/11 08:06:08;;;;;;;6.38;2.75;;;3.10;99.90;;;;;;4912330;29;20043;-74
2023/12/11 08:08:40;;;;;;;5.93;3.00;;;3.10;99.90;;;;;;4912284;29;20509;-74
2023/12/11 08:11:18;;;;;;;6.18;3.28;;;3.10;99.90;;;;;;4912467;29;20182;-74
2023/12/11 08:13:44;;;;;;;5.57;3.03;;;3.20;99.90;;;;;;4911860;29;20039;-74
2023/12/11 08:16:11;;;;;;;6.47;3.20;;;3.20;99.90;;;;;;4913797;29;20043;-74
2023/12/11 08:18:37;;;;;;;6.95;3.13;;;3.30;99.90;;;;;;4912516;29;20098;-79
2023/12/11 08:21:04;;;;;;;6.30;3.13;;;3.30;99.90;;;;;;4894906;29;20044;-75
2023/12/11 08:23:29;;;;;;;5.82;2.75;;;3.40;99.90;;;;;;4913280;29;20151;-75
2023/12/11 08:25:55;;;;;;;9.20;3.63;;;3.50;99.90;;;;;;4910224;29;20535;-75
2023/12/11 08:28:21;;;;;;;7.72;3.28;;;3.50;99.90;;;;;;4911546;29;20048;-75
2023/12/11 08:30:47;;;;;;;5.13;2.72;;;3.60;99.90;;;;;;4913655;29;20035;-75
2023/12/11 08:33:13;;;;;;;6.75;2.90;;;3.70;99.90;;;;;;4913141;29;20152;-75
2023/12/11 08:35:39;;;;;;;5.68;2.78;;;3.80;99.90;;;;;;4894924;29;20048;-75
2023/12/11 08:38:05;;;;;;;5.38;2.67;;;3.80;99.90;;;;;;4912747;29;20034;-76
2023/12/11 08:40:31;;;;;;;5.15;2.67;;;3.80;99.90;;;;;;4912219;29;20039;-75
2023/12/11 08:42:58;;;;;;;7.20;3.00;;;3.80;99.90;;;;;;4912540;29;20509;-75
2023/12/11 08:45:23;;;;;;;4.97;2.67;;;3.80;99.90;;;;;;4913457;29;20557;-75
2023/12/11 08:47:49;;;;;;;5.32;2.65;;;3.90;99.90;;;;;;4911217;29;20035;-76
2023/12/11 08:50:15;;;;;;;6.05;3.40;;;3.90;99.90;;;;;;4911601;29;20123;-75
2023/12/11 08:52:43;;;;;;;5.82;3.20;;;3.90;99.90;;;;;;4899194;29;20043;-75
2023/12/11 08:55:08;;;;;;;5.80;3.00;;;3.90;99.90;;;;;;4913357;29;20071;-75
2023/12/11 08:57:35;;;;;;;7.80;3.25;;;3.90;99.90;;;;;;4913712;29;20549;-73
2023/12/11 09:00:01;;;;;;;7.22;3.80;;;4.00;99.90;;;;;;4914959;29;20036;-75
2023/12/11 09:02:26;;;;;;;7.50;3.47;;;4.10;99.90;;;;;;4906276;29;20119;-73
2023/12/11 09:04:53;;;;;;;6.80;3.30;;;4.20;99.90;;;;;;4913074;29;20044;-74
2023/12/11 09:07:18;;;;;;;6.47;3.38;;;4.30;99.90;;;;;;4913137;29;20371;-74
2023/12/11 09:09:44;;;;;;;7.35;4.30;;;4.40;99.90;;;;;;4912601;29;20031;-74
2023/12/11 09:12:10;;;;;;;8.27;4.65;;;4.40;99.90;;;;;;4912169;29;20624;-74
2023/12/11 09:14:35;;;;;;;10.30;5.47;;;4.40;99.90;;;;;;4914291;29;20024;-75
2023/12/11 09:17:01;;;;;;;10.98;6.10;;;4.40;99.90;;;;;;4913851;29;20047;-75
2023/12/11 09:19:28;;;;;;;13.32;6.88;;;4.30;99.90;;;;;;4912606;29;20496;-75
2023/12/11 09:21:54;;;;;;;13.88;6.82;;;4.20;99.90;;;;;;4914186;29;20031;-75
2023/12/11 09:24:19;;;;;;;12.93;7.28;;;4.20;99.90;;;;;;4912886;29;20047;-75
2023/12/11 09:26:45;;;;;;;12.05;7.32;;;4.10;99.90;;;;;;4911110;29;20066;-74
2023/12/11 09:29:11;;;;;;;13.52;7.28;;;4.20;99.90;;;;;;4912388;29;20403;-74
2023/12/11 09:31:38;;;;;;;12.02;6.75;;;4.10;99.90;;;;;;4913292;29;20666;-74
2023/12/11 09:34:03;;;;;;;12.77;6.85;;;4.20;99.90;;;;;;4912108;29;20206;-74
2023/12/11 09:36:29;;;;;;;12.38;6.55;;;4.20;99.90;;;;;;4913459;29;20095;-73
2023/12/11 09:38:58;;;;;;;9.70;5.85;;;4.10;99.90;;;;;;4914440;29;20478;-73
2023/12/11 09:41:34;;;;;;;9.15;5.43;;;4.30;99.90;;;;;;4912507;29;20096;-74
2023/12/11 09:44:01;;;;;;;12.23;6.78;;;4.50;99.90;;;;;;4911928;29;20050;-74
2023/12/11 09:46:29;;;;;;;10.57;5.55;;;4.60;99.90;;;;;;4913305;29;20050;-74
2023/12/11 09:48:55;;;;;;;12.10;6.60;;;4.70;99.90;;;;;;4913509;29;20058;-74
2023/12/11 09:51:21;;;;;;;16.63;6.97;;;4.60;99.90;;;;;;4909543;29;20135;-74
2023/12/11 09:53:48;;;;;;;10.82;6.82;;;4.50;99.90;;;;;;4911005;29;20035;-74
2023/12/11 09:56:15;;;;;;;18.73;8.68;;;4.50;99.90;;;;;;4911677;29;20039;-74
2023/12/11 09:58:43;;;;;;;14.27;9.20;;;4.50;99.90;;;;;;4912516;29;20035;-73
2023/12/11 10:01:11;;;;;;;13.50;7.35;;;4.60;99.90;;;;;;4910862;29;20114;-73
2023/12/11 10:03:37;;;;;;;15.77;7.13;;;4.70;99.90;;;;;;4911730;29;20498;-73
2023/12/11 10:06:04;;;;;;;12.25;6.80;;;4.80;99.90;;;;;;4911530;29;20039;-74
2023/12/11 10:08:30;;;;;;;14.90;8.50;;;4.80;99.90;;;;;;4913592;29;20042;-73
2023/12/11 10:11:10;;;;;;;12.68;6.95;;;4.80;99.90;;;;;;4911178;29;20091;-74
2023/12/11 10:13:36;;;;;;;11.45;6.35;;;4.80;99.90;;;;;;4894928;29;20497;-74
2023/12/11 10:16:02;;;;;;;12.65;6.95;;;4.80;99.90;;;;;;4909021;29;20091;-74
2023/12/11 10:18:27;;;;;;;11.95;7.72;;;4.70;99.90;;;;;;4911675;29;20055;-74
2023/12/11 10:20:57;;;;;;;14.63;7.32;;;4.70;99.90;;;;;;4911226;29;20040;-74
2023/12/11 10:23:23;;;;;;;12.48;7.07;;;4.80;99.90;;;;;;4911430;29;20131;-75
2023/12/11 10:25:54;;;;;;;9.60;5.95;;;4.90;99.90;;;;;;4911775;29;20039;-74
2023/12/11 10:28:23;;;;;;;10.68;6.00;;;4.90;99.90;;;;;;4910667;29;20036;-75
2023/12/11 10:30:54;;;;;;;9.55;5.82;;;5.00;99.90;;;;;;4912526;29;20466;-74
2023/12/11 10:33:21;;;;;;;12.88;6.97;;;5.10;99.90;;;;;;4913249;29;20035;-74
2023/12/11 10:35:48;;;;;;;10.57;6.07;;;5.20;99.90;;;;;;4913184;29;20118;-74
2023/12/11 10:38:24;;;;;;;10.25;5.70;;;5.50;99.90;;;;;;4911710;29;20432;-75
2023/12/11 10:40:50;;;;;;;9.98;6.32;;;5.60;99.90;;;;;;4912227;29;20147;-74
2023/12/11 10:43:16;;;;;;;10.27;5.50;;;5.50;99.90;;;;;;4913574;29;20051;-74
2023/12/11 10:45:46;;;;;;;12.05;7.00;;;5.30;99.90;;;;;;4893223;29;20392;-75
2023/12/11 10:48:12;;;;;;;10.43;6.05;;;5.30;99.90;;;;;;4909049;29;20486;-74
2023/12/11 10:50:38;;;;;;;10.88;6.40;;;5.20;99.90;;;;;;4909620;29;20047;-73
2023/12/11 10:53:04;;;;;;;15.05;6.63;;;5.30;99.90;;;;;;4911347;29;20024;-74
2023/12/11 10:55:30;;;;;;;9.30;5.70;;;5.50;99.90;;;;;;4911400;29;20035;-74
2023/12/11 10:58:03;;;;;;;14.15;6.40;;;5.70;99.90;;;;;;4912759;29;20622;-73
2023/12/11 11:00:31;;;;;;;14.57;6.22;;;5.90;99.90;;;;;;4912253;29;20036;-74
2023/12/11 11:02:58;;;;;;;10.30;5.78;;;6.00;99.90;;;;;;4912875;29;20509;-75
2023/12/11 11:05:28;;;;;;;13.40;6.18;;;6.10;99.90;;;;;;4915674;29;20050;-74
2023/12/11 11:08:22;;;;;;;15.88;6.15;;;6.30;99.90;;;;;;4916896;29;20689;-74
2023/12/11 11:11:27;;;;;;;10.00;5.57;;;6.20;99.90;;;;;;4887953;29;20343;-73
2023/12/11 11:14:20;;;;;;;8.40;4.63;;;6.20;99.90;;;;;;4915381;29;20063;-74
2023/12/11 11:16:53;;;;;;;14.57;4.80;;;6.20;99.90;;;;;;4915982;29;20569;-74
2023/12/11 11:19:19;;;;;;;12.60;8.00;;;6.30;99.90;;;;;;4913589;29;20047;-74
2023/12/11 11:22:00;;;;;;;10.18;6.40;;;6.50;99.90;;;;;;4914612;29;20035;-73
2023/12/11 11:24:29;;;;;;;8.43;5.03;;;6.50;99.90;;;;;;4914362;29;20032;-72
2023/12/11 11:26:54;;;;;;;7.90;4.50;;;6.30;99.90;;;;;;4913936;29;20074;-75
2023/12/11 11:29:43;;;;;;;7.32;4.13;;;6.40;99.90;;;;;;4914084;29;20478;-75
2023/12/11 11:32:10;;;;;;;7.80;3.88;;;6.70;99.90;;;;;;4914162;29;22532;-75
2023/12/11 11:34:46;;;;;;;9.10;3.80;;;6.80;99.90;;;;;;4913991;29;20047;-74
2023/12/11 11:37:20;;;;;;;6.07;3.25;;;7.00;99.90;;;;;;4914659;29;20367;-74
2023/12/11 11:40:05;;;;;;;5.57;3.65;;;7.10;99.90;;;;;;4915703;29;20039;-74
2023/12/11 11:42:35;;;;;;;;;;;7.10;99.90;;;;;;4915271;29;20044;-74
2023/12/11 11:45:03;;;;;;;5.82;3.05;;;6.90;99.90;;;;;;4915819;29;19918;-74
2023/12/11 11:47:31;;;;;;;6.57;3.97;;;6.70;99.90;;;;;;4896253;29;20407;-75
2023/12/11 11:50:16;;;;;;;6.97;2.90;;;6.60;99.90;;;;;;4910402;29;20051;-74
2023/12/11 11:52:42;;;;;;;;;;;6.60;99.90;;;;;;4910118;29;20020;-74
2023/12/11 11:55:13;;;;;;;6.88;3.60;;;6.60;99.90;;;;;;4913591;29;19919;-75
2023/12/11 11:57:39;;;;;;;5.43;2.88;;;6.50;99.90;;;;;;4914199;29;20032;-75
2023/12/11 12:00:06;;;;;;;6.68;3.55;;;6.50;99.90;;;;;;4913568;29;20035;-75
2023/12/11 12:02:32;;;;;;;6.97;3.55;;;6.50;99.90;;;;;;4915383;29;20038;-75
2023/12/11 12:05:08;;;;;;;6.53;3.55;;;6.70;99.90;;;;;;4914481;29;20028;-74
2023/12/11 12:07:37;;;;;;;9.55;4.25;;;6.80;99.90;;;;;;4911859;29;20040;-74
2023/12/11 12:10:02;;;;;;;7.63;4.05;;;6.70;99.90;;;;;;4912605;29;20039;-75
2023/12/11 12:12:28;;;;;;;7.90;3.60;;;6.80;99.90;;;;;;4915560;29;20036;-77
2023/12/11 12:15:02;;;;;;;7.80;3.40;;;6.80;99.90;;;;;;4912779;29;20085;-74
2023/12/11 12:17:27;;;;;;;8.82;3.40;;;6.70;99.90;;;;;;4913949;29;20295;-77
2023/12/11 12:19:53;;;;;;;9.93;3.78;;;6.70;99.90;;;;;;4916083;29;20059;-75
2023/12/11 12:22:19;;;;;;;7.00;3.45;;;6.70;99.90;;;;;;4911771;29;20051;-75
2023/12/11 12:24:48;;;;;;;5.85;2.95;;;6.80;99.90;;;;;;4912422;29;20075;-75
2023/12/11 12:27:18;;;;;;;8.68;3.22;;;6.90;99.90;;;;;;4911624;29;20059;-76
2023/12/11 12:29:45;;;;;;;7.28;3.85;;;6.80;99.90;;;;;;4913511;29;20122;-75
2023/12/11 12:32:13;;;;;;;6.47;3.60;;;6.90;99.90;;;;;;4911551;29;20929;-75
2023/12/11 12:34:44;;;;;;;5.95;3.42;;;6.80;99.90;;;;;;4912050;29;20064;-75
2023/12/11 12:37:10;;;;;;;6.18;3.40;;;7.00;99.90;;;;;;4912261;29;20031;-76
2023/12/11 12:39:36;;;;;;;6.82;3.40;;;7.00;99.90;;;;;;4911277;29;20048;-76
2023/12/11 12:42:02;;;;;;;6.20;3.40;;;7.00;99.90;;;;;;4911771;29;20167;-75
2023/12/11 12:44:28;;;;;;;6.25;3.25;;;7.10;99.90;;;;;;4911995;29;20047;-80
2023/12/11 12:47:01;;;;;;;6.93;3.40;;;7.10;99.90;;;;;;4911589;29;20044;-75
2023/12/11 12:49:27;;;;;;;6.40;3.20;;;7.30;99.90;;;;;;4911941;29;20051;-76
2023/12/11 12:51:54;;;;;;;8.30;3.63;;;7.30;99.90;;;;;;4913060;29;20957;-75
2023/12/11 12:54:21;;;;;;;6.32;2.88;;;7.60;99.90;;;;;;4916349;29;20505;-75